Time;durP1;ratioP1;P1;durP2;ratioP2;P2;SDS_P1;SDS_P2;PMS_P1;PMS_P2;Temp;Humidity;BMP_temperature;BMP_pressure;BME280_temperature;BME280_humidity;BME280_pressure;Samples;Min_cycle;Max_cycle;Signal;HPM_P1;HPM_P2
2022/05/18 00:00:30;;;;;;;6.47;5.10;;;18.70;1.00;;;;;;5078416;28;20449;-61
2022/05/18 00:03:04;;;;;;;7.00;4.40;;;18.60;1.00;;;;;;5079287;28;20515;-61
2022/05/18 00:05:34;;;;;;;6.53;4.70;;;18.60;1.00;;;;;;5078977;28;20461;-61
2022/05/18 00:08:02;;;;;;;6.73;4.43;;;18.50;1.00;;;;;;5079325;28;20493;-61
2022/05/18 00:10:34;;;;;;;5.03;4.50;;;18.40;1.00;;;;;;5079153;28;20518;-61
2022/05/18 00:13:01;;;;;;;5.37;4.70;;;18.40;1.00;;;;;;5079882;28;20959;-62
2022/05/18 00:15:31;;;;;;;6.73;4.83;;;18.30;1.00;;;;;;5079268;28;20817;-61
2022/05/18 00:17:58;;;;;;;9.23;4.97;;;18.30;1.00;;;;;;5078634;28;20533;-61
2022/05/18 00:20:28;;;;;;;5.63;5.13;;;18.30;1.00;;;;;;5077556;28;20531;-61
2022/05/18 00:22:59;;;;;;;9.80;4.93;;;18.30;1.00;;;;;;5079437;28;20472;-61
2022/05/18 00:25:27;;;;;;;4.80;4.13;;;18.20;1.00;;;;;;5079304;28;20900;-61
2022/05/18 00:27:57;;;;;;;7.53;4.40;;;18.20;1.00;;;;;;5078952;28;21048;-61
2022/05/18 00:30:28;;;;;;;6.30;4.90;;;18.10;1.00;;;;;;5079027;28;20552;-61
2022/05/18 00:32:56;;;;;;;5.90;5.33;;;18.10;1.00;;;;;;5078041;28;20472;-61
2022/05/18 00:35:25;;;;;;;6.47;5.10;;;18.10;1.00;;;;;;5079039;28;20822;-61
2022/05/18 00:37:52;;;;;;;5.23;4.80;;;18.00;1.00;;;;;;5077981;28;20722;-61
2022/05/18 00:40:21;;;;;;;6.93;5.20;;;17.90;2.70;;;;;;5078701;28;20465;-61
2022/05/18 00:42:48;;;;;;;7.07;5.07;;;17.90;16.70;;;;;;5078306;28;20553;-61
2022/05/18 00:45:16;;;;;;;5.40;5.00;;;17.90;30.00;;;;;;5075335;28;20573;-61
2022/05/18 00:47:43;;;;;;;7.67;5.53;;;17.80;51.40;;;;;;5077974;28;20543;-61
2022/05/18 00:50:18;;;;;;;6.10;5.60;;;17.80;98.50;;;;;;5078851;28;20477;-61
2022/05/18 00:52:50;;;;;;;5.40;4.90;;;17.70;99.90;;;;;;5078179;28;20808;-61
2022/05/18 00:55:24;;;;;;;8.50;5.27;;;17.60;99.90;;;;;;5078763;28;20504;-61
2022/05/18 00:58:03;;;;;;;4.57;4.10;;;17.60;99.90;;;;;;5077868;28;20547;-61
2022/05/18 01:00:35;;;;;;;6.73;5.43;;;17.50;99.90;;;;;;5077811;28;20556;-61
2022/05/18 01:03:15;;;;;;;10.80;5.90;;;17.50;99.90;;;;;;5077449;28;20461;-61
2022/05/18 01:05:45;;;;;;;5.50;4.93;;;17.50;99.90;;;;;;5078303;28;20469;-61
2022/05/18 01:08:17;;;;;;;5.97;5.33;;;17.50;99.90;;;;;;5077700;28;20550;-61
2022/05/18 01:10:48;;;;;;;6.20;5.33;;;17.50;99.90;;;;;;5078416;28;20469;-61
2022/05/18 01:13:20;;;;;;;8.17;5.63;;;17.50;99.90;;;;;;5077854;28;20820;-61
2022/05/18 01:15:47;;;;;;;5.43;4.93;;;17.50;99.90;;;;;;5077829;28;20491;-61
2022/05/18 01:18:17;;;;;;;5.17;4.67;;;17.50;99.90;;;;;;5077309;28;20544;-61
2022/05/18 01:20:52;;;;;;;7.47;4.87;;;17.50;99.90;;;;;;5077581;28;20575;-61
2022/05/18 01:23:47;;;;;;;7.60;5.23;;;17.50;99.90;;;;;;5078108;28;20431;-61
2022/05/18 01:26:22;;;;;;;6.10;5.00;;;17.50;99.90;;;;;;5057955;28;20784;-61
2022/05/18 01:28:54;;;;;;;5.77;5.27;;;17.40;99.90;;;;;;5067331;28;20486;-61
2022/05/18 01:31:52;;;;;;;5.37;4.67;;;17.40;99.90;;;;;;5077451;28;20958;-61
2022/05/18 01:34:22;;;;;;;7.73;5.30;;;17.30;99.90;;;;;;5077529;28;20463;-61
2022/05/18 01:36:58;;;;;;;5.40;4.90;;;17.30;99.90;;;;;;5077352;28;20952;-61
2022/05/18 01:39:31;;;;;;;6.73;5.53;;;17.30;99.90;;;;;;5077715;28;20476;-61
2022/05/18 01:42:05;;;;;;;7.10;5.63;;;17.30;99.90;;;;;;5077002;28;20963;-61
2022/05/18 01:44:35;;;;;;;6.63;5.17;;;17.30;99.90;;;;;;5073992;28;20539;-61
2022/05/18 01:47:02;;;;;;;8.80;4.90;;;17.10;99.90;;;;;;5074918;28;20526;-61
2022/05/18 01:49:29;;;;;;;6.10;5.13;;;17.10;99.90;;;;;;5077706;28;20528;-61
2022/05/18 01:51:57;;;;;;;6.53;5.17;;;17.00;99.90;;;;;;5076670;28;20780;-61
2022/05/18 01:54:23;;;;;;;5.90;4.97;;;17.10;99.90;;;;;;5077790;28;20560;-61
2022/05/18 01:56:52;;;;;;;8.53;4.70;;;17.00;99.90;;;;;;5077657;28;20551;-61
2022/05/18 01:59:20;;;;;;;5.83;5.23;;;17.00;1.00;;;;;;5077482;28;20544;-61
2022/05/18 02:01:48;;;;;;;5.67;5.13;;;17.00;1.00;;;;;;5075993;28;20846;-61
2022/05/18 02:04:20;;;;;;;7.70;4.27;;;16.80;1.00;;;;;;5076799;28;20544;-61
2022/05/18 02:06:54;;;;;;;5.13;4.70;;;16.80;1.00;;;;;;5076062;28;20511;-61
2022/05/18 02:09:21;;;;;;;7.90;4.87;;;16.70;1.00;;;;;;5075836;28;20484;-61
2022/05/18 02:11:50;;;;;;;6.03;4.90;;;16.70;1.00;;;;;;5075597;28;20453;-61
2022/05/18 02:14:19;;;;;;;7.40;5.63;;;16.70;1.00;;;;;;5075355;28;20539;-61
2022/05/18 02:16:51;;;;;;;5.30;4.80;;;16.70;1.00;;;;;;5075734;28;20530;-61
2022/05/18 02:19:20;;;;;;;5.67;5.17;;;16.70;1.00;;;;;;5075740;28;20473;-61
2022/05/18 02:21:47;;;;;;;8.73;5.17;;;16.80;1.00;;;;;;5075238;28;20454;-61
2022/05/18 02:24:14;;;;;;;6.50;5.10;;;16.80;99.90;;;;;;5075278;28;20964;-61
2022/05/18 02:26:44;;;;;;;5.63;4.70;;;16.70;99.90;;;;;;5075899;28;20480;-61
2022/05/18 02:29:13;;;;;;;6.37;5.30;;;16.80;99.90;;;;;;5074137;28;20826;-61
2022/05/18 02:31:44;;;;;;;11.13;5.57;;;16.80;99.90;;;;;;5075335;28;20548;-61
2022/05/18 02:34:13;;;;;;;6.20;5.33;;;16.80;99.90;;;;;;5075443;28;20468;-61
2022/05/18 02:36:44;;;;;;;5.23;4.73;;;16.80;99.90;;;;;;5075620;28;20765;-61
2022/05/18 02:39:11;;;;;;;7.23;5.40;;;16.70;99.90;;;;;;5075653;28;20519;-61
2022/05/18 02:41:44;;;;;;;6.00;5.40;;;16.70;99.90;;;;;;5075004;28;20482;-61
2022/05/18 02:44:13;;;;;;;7.00;5.13;;;16.70;99.90;;;;;;5075390;28;20497;-61
2022/05/18 02:46:46;;;;;;;5.20;4.70;;;16.70;99.90;;;;;;5072578;28;20493;-61
2022/05/18 02:49:19;;;;;;;6.17;5.57;;;16.80;99.90;;;;;;5073450;28;20584;-61
2022/05/18 02:51:46;;;;;;;5.30;4.80;;;16.70;99.90;;;;;;5075762;28;20457;-61
2022/05/18 02:56:59;;;;;;;6.40;5.27;;;16.70;99.90;;;;;;5076824;28;20437;-61
2022/05/18 02:59:36;;;;;;;9.23;5.67;;;16.70;99.90;;;;;;5080271;28;20496;-61
2022/05/18 03:02:03;;;;;;;6.43;5.10;;;16.60;99.90;;;;;;5079656;28;20863;-61
2022/05/18 03:04:32;;;;;;;6.60;5.10;;;16.60;99.90;;;;;;5079913;28;20488;-61
2022/05/18 03:07:00;;;;;;;7.10;6.17;;;16.50;1.00;;;;;;5080728;28;20535;-61
2022/05/18 03:09:27;;;;;;;7.10;5.93;;;16.50;1.00;;;;;;5080216;28;20925;-61
2022/05/18 03:11:59;;;;;;;6.43;5.70;;;16.40;1.00;;;;;;5079833;28;20493;-61
2022/05/18 03:14:26;;;;;;;6.00;5.47;;;16.30;93.80;;;;;;5080589;28;20461;-61
2022/05/18 03:16:57;;;;;;;5.20;4.67;;;16.30;26.10;;;;;;5079422;28;20496;-61
2022/05/18 03:19:27;;;;;;;6.03;5.23;;;16.30;2.20;;;;;;5080071;28;20838;-61
2022/05/18 03:24:43;;;;;;;7.83;5.10;;;16.30;1.00;;;;;;5080163;28;20441;-61
2022/05/18 03:27:15;;;;;;;6.33;5.73;;;16.30;1.00;;;;;;5079722;28;20495;-61
2022/05/18 03:29:45;;;;;;;7.37;5.93;;;16.30;1.00;;;;;;5079144;28;20499;-61
2022/05/18 03:32:22;;;;;;;6.37;5.73;;;16.30;1.00;;;;;;5080055;28;20464;-61
2022/05/18 03:34:52;;;;;;;5.53;5.03;;;16.40;1.00;;;;;;5080280;28;20545;-61
2022/05/18 03:37:23;;;;;;;9.07;5.33;;;16.20;80.90;;;;;;5079377;28;20545;-61
2022/05/18 03:39:53;;;;;;;9.27;5.70;;;16.20;99.90;;;;;;5079504;28;20540;-61
2022/05/18 03:42:25;;;;;;;8.00;6.17;;;16.00;1.00;;;;;;5079781;28;20828;-61
2022/05/18 03:44:52;;;;;;;6.53;5.40;;;16.00;1.00;;;;;;5080142;28;20492;-61
2022/05/18 03:47:18;;;;;;;7.33;5.50;;;16.00;1.00;;;;;;5075622;28;20544;-61
2022/05/18 03:49:48;;;;;;;10.13;6.47;;;16.00;99.90;;;;;;5079635;28;20524;-61
2022/05/18 03:52:20;;;;;;;11.23;6.47;;;16.10;99.90;;;;;;5078529;28;20826;-60
2022/05/18 03:54:48;;;;;;;6.47;5.57;;;16.10;99.90;;;;;;5079820;28;20497;-60
2022/05/18 03:57:20;;;;;;;7.00;6.10;;;16.20;99.90;;;;;;5079627;28;20485;-61
2022/05/18 03:59:47;;;;;;;9.90;5.67;;;16.20;1.00;;;;;;5079041;28;20457;-61
2022/05/18 04:02:14;;;;;;;7.03;5.17;;;16.30;1.00;;;;;;5078394;28;20551;-61
2022/05/18 04:04:43;;;;;;;7.83;5.57;;;16.30;1.00;;;;;;5079565;28;20456;-61
2022/05/18 04:07:10;;;;;;;8.53;6.23;;;16.40;1.00;;;;;;5078839;28;20519;-61
2022/05/18 04:09:37;;;;;;;7.60;5.80;;;16.50;1.00;;;;;;5078752;28;20492;-61
2022/05/18 04:12:08;;;;;;;8.10;5.67;;;16.50;1.00;;;;;;5078913;28;20564;-61
2022/05/18 04:14:35;;;;;;;6.80;5.77;;;16.50;1.00;;;;;;5079538;28;20469;-61
2022/05/18 04:17:05;;;;;;;7.37;6.23;;;16.60;1.00;;;;;;5079874;28;20507;-61
2022/05/18 04:19:33;;;;;;;6.20;5.60;;;16.60;1.00;;;;;;5078216;28;20856;-61
2022/05/18 04:22:06;;;;;;;6.67;5.53;;;16.60;99.90;;;;;;5078677;28;20496;-61
2022/05/18 04:24:35;;;;;;;6.13;5.60;;;16.60;1.00;;;;;;5079009;28;20874;-61
2022/05/18 04:27:02;;;;;;;7.83;5.73;;;16.70;99.90;;;;;;5079402;28;20476;-61
2022/05/18 04:29:30;;;;;;;6.40;5.77;;;16.80;99.90;;;;;;5078137;28;20496;-61
2022/05/18 04:31:57;;;;;;;9.13;5.77;;;16.80;99.90;;;;;;5078219;28;20744;-61
2022/05/18 04:34:25;;;;;;;9.67;6.70;;;16.90;99.90;;;;;;5079035;28;20838;-60
2022/05/18 04:37:00;;;;;;;8.87;4.93;;;16.90;99.90;;;;;;5077236;28;20466;-61
2022/05/18 04:39:27;;;;;;;6.27;5.70;;;17.00;99.90;;;;;;5077127;28;20904;-60
2022/05/18 04:42:11;;;;;;;5.70;5.03;;;17.00;99.90;;;;;;5077407;28;20453;-61
2022/05/18 04:44:40;;;;;;;9.13;5.50;;;17.10;99.90;;;;;;5076063;28;20458;-61
2022/05/18 04:47:07;;;;;;;10.33;6.70;;;17.20;99.90;;;;;;5073696;28;20458;-59
2022/05/18 04:49:39;;;;;;;5.97;5.37;;;17.20;99.90;;;;;;5072835;28;20575;-61
2022/05/18 04:52:09;;;;;;;6.90;5.30;;;17.30;99.90;;;;;;5074925;28;20458;-61
2022/05/18 04:54:36;;;;;;;6.87;5.27;;;17.40;99.90;;;;;;5074747;28;20559;-61
2022/05/18 04:57:06;;;;;;;7.27;6.57;;;17.40;99.90;;;;;;5077478;28;20493;-60
2022/05/18 04:59:44;;;;;;;6.13;5.20;;;17.60;99.90;;;;;;5073710;28;20496;-61
2022/05/18 05:02:11;;;;;;;6.00;5.27;;;17.50;99.90;;;;;;5074711;28;20481;-61
2022/05/18 05:04:38;;;;;;;7.40;4.77;;;17.60;99.90;;;;;;5076192;28;20524;-61
2022/05/18 05:07:05;;;;;;;5.57;5.10;;;17.70;95.20;;;;;;5077275;28;20515;-60
2022/05/18 05:09:33;;;;;;;9.83;5.60;;;17.80;71.10;;;;;;5074395;28;20963;-60
2022/05/18 05:12:02;;;;;;;6.33;5.73;;;17.80;33.50;;;;;;5078550;28;20470;-60
2022/05/18 05:14:32;;;;;;;5.10;4.70;;;17.90;19.40;;;;;;5079640;28;20471;-60
2022/05/18 05:17:01;;;;;;;6.27;5.57;;;18.00;1.60;;;;;;5080197;28;20818;-60
2022/05/18 05:19:30;;;;;;;5.50;5.00;;;18.10;1.00;;;;;;5079495;28;20500;-60
2022/05/18 05:22:04;;;;;;;6.90;5.00;;;18.10;1.00;;;;;;5077460;28;20461;-61
2022/05/18 05:24:31;;;;;;;10.80;5.43;;;18.20;1.00;;;;;;5078930;28;20467;-61
2022/05/18 05:26:58;;;;;;;8.63;5.20;;;18.30;1.00;;;;;;5077927;28;20457;-61
2022/05/18 05:29:27;;;;;;;5.30;4.70;;;18.40;1.00;;;;;;5077542;28;20591;-60
2022/05/18 05:31:58;;;;;;;5.93;5.40;;;18.50;1.00;;;;;;5075139;28;20481;-60
2022/05/18 05:34:38;;;;;;;6.10;5.50;;;18.60;1.00;;;;;;5077730;28;20502;-61
2022/05/18 05:37:10;;;;;;;8.90;5.10;;;18.80;1.00;;;;;;5076812;28;20465;-61
2022/05/18 05:39:37;;;;;;;8.30;7.50;;;18.90;1.00;;;;;;5077004;28;20545;-62
2022/05/18 05:42:11;;;;;;;6.43;5.70;;;18.90;1.00;;;;;;5075435;28;20497;-63
2022/05/18 05:44:38;;;;;;;6.87;4.70;;;19.10;1.00;;;;;;5073317;28;20519;-63
2022/05/18 05:47:05;;;;;;;6.20;5.53;;;19.20;1.00;;;;;;5076354;28;20465;-62
2022/05/18 05:49:42;;;;;;;6.20;5.13;;;19.30;1.00;;;;;;5073825;28;20597;-63
2022/05/18 05:52:17;;;;;;;5.40;4.90;;;19.40;1.00;;;;;;5076095;28;20471;-63
2022/05/18 05:54:46;;;;;;;11.10;5.03;;;19.60;1.00;;;;;;5073233;28;20460;-63
2022/05/18 05:57:13;;;;;;;6.83;5.00;;;19.80;1.00;;;;;;5064768;28;20816;-63
2022/05/18 05:59:40;;;;;;;4.90;4.40;;;20.10;1.00;;;;;;5064752;28;20777;-64
2022/05/18 06:02:11;;;;;;;9.70;5.73;;;20.30;1.00;;;;;;5067800;28;20461;-64
2022/05/18 06:04:42;;;;;;;6.53;4.50;;;20.60;1.00;;;;;;5070286;28;20523;-64
2022/05/18 06:07:10;;;;;;;4.67;4.23;;;20.80;1.00;;;;;;5076077;28;20542;-63
2022/05/18 06:09:39;;;;;;;5.53;4.90;;;21.00;1.00;;;;;;5076766;28;20618;-63
2022/05/18 06:12:10;;;;;;;6.27;5.67;;;21.20;1.00;;;;;;5074849;28;20499;-63
2022/05/18 06:14:36;;;;;;;6.40;4.40;;;21.40;1.00;;;;;;5064146;28;20501;-63
2022/05/18 06:17:04;;;;;;;9.17;5.17;;;21.60;99.90;;;;;;5068256;28;20462;-64
2022/05/18 06:19:34;;;;;;;5.40;4.60;;;21.80;99.90;;;;;;5071103;28;20901;-63
2022/05/18 06:22:03;;;;;;;4.87;4.37;;;22.00;99.90;;;;;;5077224;28;20472;-63
2022/05/18 06:24:30;;;;;;;4.27;3.87;;;22.10;99.90;;;;;;5075647;28;20515;-64
2022/05/18 06:27:02;;;;;;;5.80;4.23;;;22.30;99.90;;;;;;5077036;28;20497;-63
2022/05/18 06:29:30;;;;;;;4.87;4.47;;;22.40;99.90;;;;;;5076506;28;20557;-63
2022/05/18 06:32:00;;;;;;;4.60;3.90;;;22.50;99.90;;;;;;5071981;28;20472;-64
2022/05/18 06:34:30;;;;;;;6.43;4.47;;;22.80;99.90;;;;;;5072388;28;20469;-64
2022/05/18 06:39:50;;;;;;;5.17;4.67;;;23.00;99.90;;;;;;5073753;28;20434;-64
2022/05/18 06:42:22;;;;;;;6.20;4.47;;;23.10;99.90;;;;;;5057004;28;20458;-63
2022/05/18 06:44:49;;;;;;;5.60;4.67;;;23.10;99.90;;;;;;5072307;28;20464;-64
2022/05/18 06:47:19;;;;;;;6.67;4.37;;;23.30;99.90;;;;;;5077010;28;20489;-63
2022/05/18 06:49:47;;;;;;;6.10;4.40;;;23.50;99.90;;;;;;5076241;28;20578;-63
2022/05/18 06:52:16;;;;;;;4.43;4.03;;;23.50;99.90;;;;;;5077220;28;20457;-64
2022/05/18 06:54:43;;;;;;;4.70;4.20;;;23.70;99.90;;;;;;5077045;28;20462;-64
2022/05/18 06:57:11;;;;;;;4.90;4.30;;;23.80;99.90;;;;;;5077207;28;20461;-64
2022/05/18 06:59:38;;;;;;;5.20;4.70;;;23.90;99.90;;;;;;5075356;28;20469;-63
2022/05/18 07:02:08;;;;;;;5.60;5.10;;;24.10;99.90;;;;;;5074274;28;20568;-63
2022/05/18 07:04:35;;;;;;;4.37;4.00;;;24.40;99.90;;;;;;5076559;28;20852;-65
2022/05/18 07:07:04;;;;;;;10.03;4.23;;;24.60;99.90;;;;;;5075899;28;20882;-64
2022/05/18 07:09:32;;;;;;;4.90;4.50;;;24.60;99.90;;;;;;5075914;28;20519;-63
2022/05/18 07:12:02;;;;;;;4.40;4.00;;;24.80;99.90;;;;;;5075131;28;20468;-63
2022/05/18 07:14:33;;;;;;;7.37;4.23;;;24.90;99.90;;;;;;5076504;28;20557;-63
2022/05/18 07:17:00;;;;;;;5.93;3.90;;;24.80;99.90;;;;;;5077116;28;20811;-64
2022/05/18 07:19:30;;;;;;;4.80;4.30;;;24.90;99.90;;;;;;5076493;28;20796;-64
2022/05/18 07:21:58;;;;;;;7.60;4.20;;;25.10;99.90;;;;;;5075955;28;20546;-63
2022/05/18 07:24:27;;;;;;;3.70;3.40;;;25.30;99.90;;;;;;5076910;28;20963;-64
2022/05/18 07:26:57;;;;;;;5.00;4.50;;;25.50;99.90;;;;;;5089609;28;20460;-64
2022/05/18 07:29:24;;;;;;;4.10;3.70;;;25.70;99.90;;;;;;5095955;28;20555;-64
2022/05/18 07:32:16;;;;;;;4.23;3.93;;;25.70;99.90;;;;;;5085900;28;20471;-64
2022/05/18 07:34:47;;;;;;;4.00;3.70;;;25.50;99.90;;;;;;5076520;28;20484;-64
2022/05/18 07:37:19;;;;;;;4.27;3.87;;;25.90;99.90;;;;;;5075823;28;20501;-64
2022/05/18 07:39:46;;;;;;;5.60;4.43;;;26.00;99.90;;;;;;5074152;28;20885;-64
2022/05/18 07:42:16;;;;;;;5.80;4.20;;;26.10;99.90;;;;;;5074676;28;20607;-64
2022/05/18 07:44:43;;;;;;;5.07;4.67;;;26.20;99.90;;;;;;5077089;28;20893;-64
2022/05/18 07:47:16;;;;;;;5.33;4.13;;;26.30;99.90;;;;;;5077884;28;20958;-64
2022/05/18 07:49:46;;;;;;;6.03;3.83;;;26.40;99.90;;;;;;5079975;28;20592;-64
2022/05/18 07:52:16;;;;;;;4.80;4.37;;;26.50;99.90;;;;;;5078883;28;20796;-64
2022/05/18 07:54:48;;;;;;;3.70;3.40;;;26.90;99.90;;;;;;5080119;28;20497;-64
2022/05/18 07:57:16;;;;;;;3.73;3.40;;;27.00;99.90;;;;;;5079593;28;20470;-64
2022/05/18 07:59:48;;;;;;;4.13;3.73;;;27.20;99.90;;;;;;5076758;28;20778;-64
2022/05/18 08:02:18;;;;;;;4.27;3.87;;;27.50;99.90;;;;;;5078170;28;20489;-64
2022/05/18 08:04:48;;;;;;;5.97;4.03;;;27.70;99.90;;;;;;5079737;28;20465;-64
2022/05/18 08:07:15;;;;;;;3.70;3.40;;;27.70;99.90;;;;;;5079279;28;20458;-64
2022/05/18 08:15:10;;;;;;;5.90;3.27;;;28.20;99.90;;;;;;5079422;28;20725;-64
2022/05/18 08:17:42;;;;;;;3.90;3.57;;;28.40;99.90;;;;;;5079317;28;20535;-64
2022/05/18 08:20:16;;;;;;;4.73;3.30;;;28.50;99.90;;;;;;5078842;28;20516;-64
2022/05/18 08:22:47;;;;;;;4.23;3.93;;;28.70;99.90;;;;;;5079018;28;20457;-64
2022/05/18 08:25:18;;;;;;;4.50;3.40;;;29.00;99.90;;;;;;5079406;28;20909;-64
2022/05/18 08:27:50;;;;;;;5.17;4.10;;;29.00;99.90;;;;;;5078512;28;20439;-63
2022/05/18 08:30:25;;;;;;;5.50;3.53;;;29.00;99.90;;;;;;5078869;28;20493;-64
2022/05/18 08:32:53;;;;;;;3.93;3.63;;;29.00;99.90;;;;;;5078515;28;20465;-64
2022/05/18 08:35:20;;;;;;;4.27;3.50;;;28.90;99.90;;;;;;5082087;28;20511;-64
2022/05/18 08:37:54;;;;;;;3.70;3.40;;;28.80;99.90;;;;;;5078673;28;20500;-64
2022/05/18 08:40:36;;;;;;;4.47;3.57;;;28.60;99.90;;;;;;5079155;28;20507;-64
2022/05/18 08:43:05;;;;;;;4.10;3.43;;;29.00;99.90;;;;;;5066016;28;20482;-64
2022/05/18 08:45:41;;;;;;;5.03;3.53;;;29.20;99.90;;;;;;5076643;28;20493;-64
2022/05/18 08:48:25;;;;;;;4.80;3.70;;;29.20;99.90;;;;;;5077456;28;20457;-64
2022/05/18 08:50:55;;;;;;;5.50;3.37;;;29.50;99.90;;;;;;5078509;28;20542;-64
2022/05/18 08:53:46;;;;;;;7.17;3.70;;;29.60;99.90;;;;;;5078973;28;20898;-65
2022/05/18 08:56:18;;;;;;;5.77;3.97;;;29.60;99.90;;;;;;5058773;28;20466;-64
2022/05/18 08:58:49;;;;;;;4.20;3.90;;;29.70;99.90;;;;;;5064825;28;20855;-64
2022/05/18 09:01:21;;;;;;;3.80;3.50;;;30.00;99.90;;;;;;5077478;28;20563;-64
2022/05/18 09:03:58;;;;;;;6.40;3.33;;;30.30;99.90;;;;;;5077230;28;20564;-64
2022/05/18 09:06:30;;;;;;;4.40;3.80;;;30.00;99.90;;;;;;5076279;28;20919;-63
2022/05/18 09:11:49;;;;;;;4.30;3.37;;;30.00;99.90;;;;;;5074915;28;20772;-64
2022/05/18 09:14:20;;;;;;;3.77;3.43;;;30.40;99.90;;;;;;5073285;28;20496;-63
2022/05/18 09:17:03;;;;;;;3.70;3.40;;;30.80;99.90;;;;;;5075718;28;20512;-64
2022/05/18 09:19:44;;;;;;;4.00;3.60;;;30.60;99.90;;;;;;5074023;28;20544;-63
2022/05/18 09:22:27;;;;;;;5.83;3.57;;;30.60;99.90;;;;;;5062383;28;20501;-66
2022/05/18 09:25:03;;;;;;;4.47;3.13;;;30.60;99.90;;;;;;5074257;28;20619;-63
2022/05/18 09:27:46;;;;;;;4.23;3.83;;;30.60;99.90;;;;;;5067634;28;20880;-63
2022/05/18 09:30:22;;;;;;;4.70;4.30;;;30.50;99.90;;;;;;5073623;28;20496;-64
2022/05/18 09:33:20;;;;;;;4.33;3.53;;;30.40;99.90;;;;;;5077900;28;20522;-63
2022/05/18 09:36:14;;;;;;;4.70;3.37;;;30.60;99.90;;;;;;5059989;28;20458;-64
2022/05/18 09:38:53;;;;;;;5.50;3.10;;;30.10;99.90;;;;;;5077783;28;20472;-64
2022/05/18 09:41:24;;;;;;;4.73;4.33;;;30.30;99.90;;;;;;5077972;28;20457;-64
2022/05/18 09:44:00;;;;;;;3.97;3.27;;;30.70;99.90;;;;;;5077883;28;20955;-63
2022/05/18 09:46:35;;;;;;;3.87;3.57;;;30.60;99.90;;;;;;5068425;28;20847;-63
2022/05/18 09:49:20;;;;;;;5.63;4.13;;;31.00;99.90;;;;;;5072926;28;20506;-63
2022/05/18 09:52:01;;;;;;;3.60;3.30;;;31.20;99.90;;;;;;5074297;28;20558;-63
2022/05/18 09:54:30;;;;;;;3.73;3.43;;;31.60;99.90;;;;;;5070229;28;20548;-63
2022/05/18 09:57:05;;;;;;;4.03;3.73;;;31.70;99.90;;;;;;5075783;28;20507;-63
2022/05/18 09:59:44;;;;;;;4.87;3.23;;;31.70;99.90;;;;;;5076102;28;20777;-63
2022/05/18 10:07:52;;;;;;;4.03;3.73;;;32.60;99.90;;;;;;5010328;28;20593;-64
2022/05/18 10:10:29;;;;;;;4.10;3.83;;;32.60;99.90;;;;;;5062436;28;20479;-63
2022/05/18 10:13:08;;;;;;;3.60;3.30;;;32.50;99.90;;;;;;5070640;28;20452;-63
2022/05/18 10:15:39;;;;;;;3.93;3.60;;;31.90;99.90;;;;;;5073846;28;20827;-62
2022/05/18 10:18:19;;;;;;;4.20;3.80;;;32.20;99.90;;;;;;5071199;28;20988;-63
2022/05/18 10:21:13;;;;;;;3.40;3.20;;;31.80;99.90;;;;;;5071723;28;20494;-63
2022/05/18 10:23:56;;;;;;;4.83;3.07;;;31.90;99.90;;;;;;5070338;28;20556;-64
2022/05/18 10:26:32;;;;;;;4.70;3.83;;;32.10;99.90;;;;;;5073732;28;20766;-64
2022/05/18 10:29:05;;;;;;;3.90;3.50;;;32.60;99.90;;;;;;5073788;28;20499;-63
2022/05/18 10:31:36;;;;;;;3.83;3.53;;;32.50;99.90;;;;;;5076339;28;21014;-63
2022/05/18 10:34:28;;;;;;;3.30;3.10;;;32.70;99.90;;;;;;5076239;28;20461;-63
2022/05/18 10:36:58;;;;;;;4.33;4.00;;;32.40;99.90;;;;;;5076783;28;20456;-64
2022/05/18 10:39:40;;;;;;;4.00;3.70;;;32.40;99.90;;;;;;5073591;28;20555;-63
2022/05/18 10:42:26;;;;;;;5.13;3.97;;;32.30;99.90;;;;;;5076136;28;20492;-63
2022/05/18 10:44:54;;;;;;;3.60;3.30;;;32.20;99.90;;;;;;5076993;28;20464;-63
2022/05/18 10:47:29;;;;;;;3.50;3.30;;;32.50;99.90;;;;;;5067808;28;20540;-64
2022/05/18 10:50:28;;;;;;;3.30;3.10;;;32.90;99.90;;;;;;5073727;28;20465;-64
2022/05/18 10:53:03;;;;;;;4.20;3.80;;;32.50;99.90;;;;;;5076187;28;20552;-63
2022/05/18 10:55:37;;;;;;;3.37;3.10;;;32.30;99.90;;;;;;5055639;28;20468;-63
2022/05/18 10:58:11;;;;;;;5.20;3.80;;;32.50;99.90;;;;;;5056140;28;20764;-64
2022/05/18 11:00:48;;;;;;;7.00;4.10;;;32.90;99.90;;;;;;5067723;28;20460;-64
2022/05/18 11:03:26;;;;;;;3.47;3.17;;;33.00;99.90;;;;;;5069944;28;20474;-63
2022/05/18 11:06:02;;;;;;;4.03;3.73;;;33.00;99.90;;;;;;5073186;28;20957;-64
2022/05/18 11:08:31;;;;;;;4.13;3.73;;;33.10;99.90;;;;;;5074195;28;20513;-64
2022/05/18 11:11:10;;;;;;;3.80;3.50;;;33.10;99.90;;;;;;5076410;28;20488;-64
2022/05/18 11:13:46;;;;;;;7.40;3.10;;;33.60;99.90;;;;;;5069217;28;20571;-63
2022/05/18 11:16:31;;;;;;;2.77;2.57;;;33.50;99.90;;;;;;5072660;28;20486;-63
2022/05/18 11:19:05;;;;;;;3.53;3.23;;;33.10;99.90;;;;;;5073121;28;20469;-62
2022/05/18 11:21:44;;;;;;;4.80;3.60;;;32.70;99.90;;;;;;5067461;28;20508;-63
2022/05/18 11:24:24;;;;;;;4.23;3.93;;;32.80;99.90;;;;;;5059734;28;20473;-61
2022/05/18 11:27:09;;;;;;;4.03;3.73;;;32.90;99.90;;;;;;5079935;28;20468;-59
2022/05/18 11:29:49;;;;;;;4.23;3.60;;;33.30;99.90;;;;;;5080069;28;20811;-60
2022/05/18 11:32:21;;;;;;;3.40;3.00;;;33.20;99.90;;;;;;5079312;28;20801;-60
2022/05/18 11:35:00;;;;;;;4.10;3.80;;;32.80;99.90;;;;;;5080284;28;20503;-60
2022/05/18 11:38:06;;;;;;;3.40;3.10;;;32.70;99.90;;;;;;5080310;28;20547;-60
2022/05/18 11:40:41;;;;;;;5.63;4.10;;;33.20;99.90;;;;;;5079908;28;20465;-60
2022/05/18 11:43:29;;;;;;;3.80;3.50;;;33.10;99.90;;;;;;5079015;28;20486;-60
2022/05/18 11:46:19;;;;;;;3.13;2.90;;;33.00;99.90;;;;;;5079314;28;20492;-59
2022/05/18 11:48:54;;;;;;;5.63;3.33;;;32.60;99.90;;;;;;5079413;28;20464;-60
2022/05/18 11:51:33;;;;;;;5.43;3.40;;;32.80;99.90;;;;;;5082103;28;20814;-59
2022/05/18 11:54:10;;;;;;;3.47;3.27;;;33.10;99.90;;;;;;5059404;28;20457;-61
2022/05/18 11:56:45;;;;;;;3.37;3.10;;;33.10;99.90;;;;;;5066468;28;20781;-61
2022/05/18 11:59:52;;;;;;;3.30;3.10;;;33.40;99.90;;;;;;5079159;28;20510;-61
2022/05/18 12:03:09;;;;;;;2.67;2.47;;;33.70;99.90;;;;;;5078962;28;20869;-61
2022/05/18 12:06:09;;;;;;;4.07;3.13;;;33.60;99.90;;;;;;5017460;28;20455;-61
2022/05/18 12:09:02;;;;;;;3.20;2.87;;;34.00;99.90;;;;;;5079085;28;20461;-61
2022/05/18 12:11:38;;;;;;;3.97;3.57;;;34.20;99.90;;;;;;5077082;28;20528;-61
2022/05/18 12:14:19;;;;;;;3.87;3.47;;;34.40;99.90;;;;;;5078007;28;20494;-61
2022/05/18 12:16:54;;;;;;;4.43;2.97;;;34.40;99.90;;;;;;5078196;28;20467;-62
2022/05/18 12:19:32;;;;;;;3.60;3.40;;;34.30;99.90;;;;;;5079096;28;20906;-62
2022/05/18 12:22:07;;;;;;;4.87;3.20;;;34.10;99.90;;;;;;5077865;28;20492;-61
2022/05/18 12:24:35;;;;;;;4.47;3.40;;;34.40;99.90;;;;;;5076384;28;20525;-62
2022/05/18 12:27:04;;;;;;;3.77;3.47;;;34.40;99.90;;;;;;5077730;28;20542;-61
2022/05/18 12:29:32;;;;;;;3.50;3.13;;;34.40;99.90;;;;;;5076620;28;20496;-62
2022/05/18 12:32:05;;;;;;;2.97;2.63;;;34.50;99.90;;;;;;5076765;28;20579;-62
2022/05/18 12:34:44;;;;;;;3.00;2.77;;;34.20;99.90;;;;;;5076026;28;20461;-62
2022/05/18 12:37:24;;;;;;;3.03;2.70;;;34.20;99.90;;;;;;5072877;28;20475;-61
2022/05/18 12:40:19;;;;;;;4.60;3.90;;;33.70;99.90;;;;;;5076327;28;20775;-61
2022/05/18 12:42:56;;;;;;;3.80;3.50;;;33.90;99.90;;;;;;5074866;28;20610;-62
2022/05/18 12:45:33;;;;;;;6.40;3.10;;;33.70;99.90;;;;;;5074693;28;21214;-61
2022/05/18 12:48:19;;;;;;;3.20;3.00;;;33.60;99.90;;;;;;5072478;28;20547;-60
2022/05/18 12:50:59;;;;;;;3.20;2.63;;;34.10;99.90;;;;;;5075748;28;20927;-61
2022/05/18 12:53:58;;;;;;;3.27;3.07;;;34.20;99.90;;;;;;5077149;28;20982;-61
2022/05/18 12:57:13;;;;;;;2.90;2.70;;;33.80;99.90;;;;;;5077120;28;20537;-61
2022/05/18 12:59:58;;;;;;;3.40;3.10;;;33.70;99.90;;;;;;5066511;28;20493;-61
2022/05/18 13:02:43;;;;;;;3.77;3.40;;;33.90;99.90;;;;;;5086070;28;20457;-61
2022/05/18 13:05:50;;;;;;;3.50;2.93;;;34.00;99.90;;;;;;5078403;28;20516;-61
2022/05/18 13:08:48;;;;;;;5.93;2.60;;;33.90;99.90;;;;;;5078281;28;20496;-61
2022/05/18 13:11:28;;;;;;;2.97;2.77;;;34.00;99.90;;;;;;5076698;28;20543;-62
2022/05/18 13:14:10;;;;;;;3.40;3.10;;;34.00;99.90;;;;;;5072989;28;20472;-62
2022/05/18 13:17:05;;;;;;;3.83;3.47;;;34.00;99.90;;;;;;5074983;28;20985;-63
2022/05/18 13:19:38;;;;;;;4.43;3.40;;;34.00;99.90;;;;;;5073319;28;20492;-65
2022/05/18 13:22:29;;;;;;;6.20;3.50;;;33.90;99.90;;;;;;5076330;28;20495;-62
2022/05/18 13:24:58;;;;;;;3.67;3.37;;;33.40;99.90;;;;;;5077069;28;20452;-62
2022/05/18 13:27:34;;;;;;;3.10;2.90;;;33.30;99.90;;;;;;5077149;28;20457;-62
2022/05/18 13:30:06;;;;;;;4.10;2.90;;;33.50;99.90;;;;;;5074586;28;20503;-62
2022/05/18 13:32:40;;;;;;;4.00;3.07;;;33.80;99.90;;;;;;5076284;28;20521;-62
2022/05/18 13:35:13;;;;;;;5.60;3.27;;;34.10;99.90;;;;;;5077408;28;20504;-62
2022/05/18 13:37:45;;;;;;;3.30;3.10;;;33.70;99.90;;;;;;5076393;28;20469;-62
2022/05/18 13:40:12;;;;;;;3.10;2.90;;;33.40;99.90;;;;;;5057255;28;20461;-62
2022/05/18 13:42:43;;;;;;;3.27;2.97;;;33.70;99.90;;;;;;5076008;28;20744;-62